sensor_id;sensor_type;location;lat;lon;timestamp;temperature;humidity
17774;DHT22;9011;33.236;-97.118;2022-09-28T00:01:26;29.20;64.60
17774;DHT22;9011;33.236;-97.118;2022-09-28T00:03:55;29.10;64.50
17774;DHT22;9011;33.236;-97.118;2022-09-28T00:06:26;29.10;64.70
17774;DHT22;9011;33.236;-97.118;2022-09-28T00:08:55;29.00;65.00
17774;DHT22;9011;33.236;-97.118;2022-09-28T00:11:25;28.70;65.70
17774;DHT22;9011;33.236;-97.118;2022-09-28T00:13:56;28.60;66.00
17774;DHT22;9011;33.236;-97.118;2022-09-28T00:16:27;28.60;66.00
17774;DHT22;9011;33.236;-97.118;2022-09-28T00:18:55;28.40;66.80
17774;DHT22;9011;33.236;-97.118;2022-09-28T00:21:24;28.10;68.10
17774;DHT22;9011;33.236;-97.118;2022-09-28T00:23:54;28.10;67.80
17774;DHT22;9011;33.236;-97.118;2022-09-28T00:26:48;28.10;68.10
17774;DHT22;9011;33.236;-97.118;2022-09-28T00:29:20;28.00;68.10
17774;DHT22;9011;33.236;-97.118;2022-09-28T00:31:51;27.90;68.10
17774;DHT22;9011;33.236;-97.118;2022-09-28T00:34:22;27.90;68.30
17774;DHT22;9011;33.236;-97.118;2022-09-28T00:36:50;27.70;68.80
17774;DHT22;9011;33.236;-97.118;2022-09-28T00:39:19;27.70;69.00
17774;DHT22;9011;33.236;-97.118;2022-09-28T00:41:49;27.60;69.00
17774;DHT22;9011;33.236;-97.118;2022-09-28T00:44:37;27.50;69.70
17774;DHT22;9011;33.236;-97.118;2022-09-28T00:47:35;27.40;70.00
17774;DHT22;9011;33.236;-97.118;2022-09-28T00:50:09;27.30;70.30
17774;DHT22;9011;33.236;-97.118;2022-09-28T00:52:41;27.20;70.40
17774;DHT22;9011;33.236;-97.118;2022-09-28T00:55:16;27.10;70.60
17774;DHT22;9011;33.236;-97.118;2022-09-28T00:58:01;27.00;70.80
17774;DHT22;9011;33.236;-97.118;2022-09-28T01:00:32;26.90;71.70
17774;DHT22;9011;33.236;-97.118;2022-09-28T01:03:01;26.80;71.60
17774;DHT22;9011;33.236;-97.118;2022-09-28T01:05:30;26.70;72.00
17774;DHT22;9011;33.236;-97.118;2022-09-28T01:07:58;26.50;72.50
17774;DHT22;9011;33.236;-97.118;2022-09-28T01:10:29;26.50;72.70
17774;DHT22;9011;33.236;-97.118;2022-09-28T01:13:00;26.40;73.20
17774;DHT22;9011;33.236;-97.118;2022-09-28T01:15:29;26.30;73.60
17774;DHT22;9011;33.236;-97.118;2022-09-28T01:18:10;26.30;73.70
17774;DHT22;9011;33.236;-97.118;2022-09-28T01:20:54;26.20;74.10
17774;DHT22;9011;33.236;-97.118;2022-09-28T01:26:55;25.90;75.20
17774;DHT22;9011;33.236;-97.118;2022-09-28T01:32:24;25.80;75.80
17774;DHT22;9011;33.236;-97.118;2022-09-28T01:35:01;25.70;76.10
17774;DHT22;9011;33.236;-97.118;2022-09-28T01:37:36;25.70;76.50
17774;DHT22;9011;33.236;-97.118;2022-09-28T01:40:09;25.70;76.50
17774;DHT22;9011;33.236;-97.118;2022-09-28T01:42:43;25.60;76.90
17774;DHT22;9011;33.236;-97.118;2022-09-28T01:45:17;25.60;76.70
17774;DHT22;9011;33.236;-97.118;2022-09-28T01:47:46;25.50;77.00
17774;DHT22;9011;33.236;-97.118;2022-09-28T01:50:19;25.50;76.60
17774;DHT22;9011;33.236;-97.118;2022-09-28T01:52:50;25.50;76.70
17774;DHT22;9011;33.236;-97.118;2022-09-28T01:55:26;25.40;77.20
17774;DHT22;9011;33.236;-97.118;2022-09-28T01:58:01;25.50;76.60
17774;DHT22;9011;33.236;-97.118;2022-09-28T02:00:30;25.50;76.40
17774;DHT22;9011;33.236;-97.118;2022-09-28T02:03:04;25.40;76.60
17774;DHT22;9011;33.236;-97.118;2022-09-28T02:05:35;25.30;76.60
17774;DHT22;9011;33.236;-97.118;2022-09-28T02:08:07;25.30;77.00
17774;DHT22;9011;33.236;-97.118;2022-09-28T02:10:39;25.40;76.60
17774;DHT22;9011;33.236;-97.118;2022-09-28T02:13:15;25.40;76.80
17774;DHT22;9011;33.236;-97.118;2022-09-28T02:15:49;25.40;76.90
17774;DHT22;9011;33.236;-97.118;2022-09-28T02:18:18;25.50;76.90
17774;DHT22;9011;33.236;-97.118;2022-09-28T02:20:52;25.50;76.70
17774;DHT22;9011;33.236;-97.118;2022-09-28T02:23:26;25.50;76.50
17774;DHT22;9011;33.236;-97.118;2022-09-28T02:26:01;25.50;76.80
17774;DHT22;9011;33.236;-97.118;2022-09-28T02:28:31;25.60;76.40
17774;DHT22;9011;33.236;-97.118;2022-09-28T02:31:01;25.70;76.40
17774;DHT22;9011;33.236;-97.118;2022-09-28T02:33:31;25.70;76.20
17774;DHT22;9011;33.236;-97.118;2022-09-28T02:36:01;25.60;76.40
17774;DHT22;9011;33.236;-97.118;2022-09-28T02:38:30;25.70;75.80
17774;DHT22;9011;33.236;-97.118;2022-09-28T02:41:03;25.70;75.90
17774;DHT22;9011;33.236;-97.118;2022-09-28T02:43:44;25.70;75.50
17774;DHT22;9011;33.236;-97.118;2022-09-28T02:46:23;25.70;75.90
17774;DHT22;9011;33.236;-97.118;2022-09-28T02:49:08;25.80;75.70
17774;DHT22;9011;33.236;-97.118;2022-09-28T02:51:43;25.70;75.80
17774;DHT22;9011;33.236;-97.118;2022-09-28T02:54:44;25.70;75.60
17774;DHT22;9011;33.236;-97.118;2022-09-28T02:57:26;25.80;75.40
17774;DHT22;9011;33.236;-97.118;2022-09-28T03:00:03;25.80;75.40
17774;DHT22;9011;33.236;-97.118;2022-09-28T03:02:38;25.90;75.40
17774;DHT22;9011;33.236;-97.118;2022-09-28T03:05:15;25.90;75.30
17774;DHT22;9011;33.236;-97.118;2022-09-28T03:07:52;25.90;75.70
17774;DHT22;9011;33.236;-97.118;2022-09-28T03:10:27;25.80;75.90
17774;DHT22;9011;33.236;-97.118;2022-09-28T03:12:57;25.80;76.00
17774;DHT22;9011;33.236;-97.118;2022-09-28T03:15:29;25.80;76.30
17774;DHT22;9011;33.236;-97.118;2022-09-28T03:17:58;25.70;76.50
17774;DHT22;9011;33.236;-97.118;2022-09-28T03:20:28;25.60;76.70
17774;DHT22;9011;33.236;-97.118;2022-09-28T03:22:57;25.50;76.80
17774;DHT22;9011;33.236;-97.118;2022-09-28T03:25:36;25.40;77.30
17774;DHT22;9011;33.236;-97.118;2022-09-28T03:28:05;25.40;77.50
17774;DHT22;9011;33.236;-97.118;2022-09-28T03:30:35;25.40;77.50
17774;DHT22;9011;33.236;-97.118;2022-09-28T03:33:04;25.40;77.40
17774;DHT22;9011;33.236;-97.118;2022-09-28T03:35:32;25.40;77.50
17774;DHT22;9011;33.236;-97.118;2022-09-28T03:38:01;25.30;77.70
17774;DHT22;9011;33.236;-97.118;2022-09-28T03:40:29;25.30;77.60
17774;DHT22;9011;33.236;-97.118;2022-09-28T03:42:59;25.30;77.70
17774;DHT22;9011;33.236;-97.118;2022-09-28T03:45:27;25.20;77.80
17774;DHT22;9011;33.236;-97.118;2022-09-28T03:47:57;25.20;78.10
17774;DHT22;9011;33.236;-97.118;2022-09-28T03:50:26;25.20;78.20
17774;DHT22;9011;33.236;-97.118;2022-09-28T03:52:54;25.10;78.60
17774;DHT22;9011;33.236;-97.118;2022-09-28T03:55:23;25.00;78.70
17774;DHT22;9011;33.236;-97.118;2022-09-28T03:57:54;24.90;79.00
17774;DHT22;9011;33.236;-97.118;2022-09-28T04:00:22;24.80;79.50
17774;DHT22;9011;33.236;-97.118;2022-09-28T04:02:51;24.80;79.50
17774;DHT22;9011;33.236;-97.118;2022-09-28T04:05:21;24.60;79.50
17774;DHT22;9011;33.236;-97.118;2022-09-28T04:07:49;24.50;79.70
17774;DHT22;9011;33.236;-97.118;2022-09-28T04:10:19;24.40;81.10
17774;DHT22;9011;33.236;-97.118;2022-09-28T04:12:47;24.50;80.50
17774;DHT22;9011;33.236;-97.118;2022-09-28T04:15:16;24.40;81.00
17774;DHT22;9011;33.236;-97.118;2022-09-28T04:17:44;24.30;81.60
17774;DHT22;9011;33.236;-97.118;2022-09-28T04:20:13;24.20;81.80
17774;DHT22;9011;33.236;-97.118;2022-09-28T04:22:43;24.30;81.90
17774;DHT22;9011;33.236;-97.118;2022-09-28T04:25:12;24.20;84.00
17774;DHT22;9011;33.236;-97.118;2022-09-28T04:27:40;24.00;84.30
17774;DHT22;9011;33.236;-97.118;2022-09-28T04:30:26;23.90;84.00
17774;DHT22;9011;33.236;-97.118;2022-09-28T04:32:54;23.90;83.90
17774;DHT22;9011;33.236;-97.118;2022-09-28T04:35:23;23.90;84.20
17774;DHT22;9011;33.236;-97.118;2022-09-28T04:37:53;23.90;84.60
17774;DHT22;9011;33.236;-97.118;2022-09-28T04:40:21;23.90;84.80
17774;DHT22;9011;33.236;-97.118;2022-09-28T04:42:53;24.00;85.40
17774;DHT22;9011;33.236;-97.118;2022-09-28T04:45:22;23.90;86.00
17774;DHT22;9011;33.236;-97.118;2022-09-28T04:47:51;23.90;86.20
17774;DHT22;9011;33.236;-97.118;2022-09-28T04:50:20;23.90;86.90
17774;DHT22;9011;33.236;-97.118;2022-09-28T04:52:48;23.90;87.20
17774;DHT22;9011;33.236;-97.118;2022-09-28T04:55:18;23.80;87.30
17774;DHT22;9011;33.236;-97.118;2022-09-28T04:57:47;23.80;87.70
17774;DHT22;9011;33.236;-97.118;2022-09-28T05:00:16;23.80;87.70
17774;DHT22;9011;33.236;-97.118;2022-09-28T05:02:44;23.70;87.70
17774;DHT22;9011;33.236;-97.118;2022-09-28T05:05:13;23.60;87.20
17774;DHT22;9011;33.236;-97.118;2022-09-28T05:07:41;23.70;87.30
17774;DHT22;9011;33.236;-97.118;2022-09-28T05:10:11;23.70;87.30
17774;DHT22;9011;33.236;-97.118;2022-09-28T05:12:41;23.70;87.00
17774;DHT22;9011;33.236;-97.118;2022-09-28T05:15:10;23.60;87.10
17774;DHT22;9011;33.236;-97.118;2022-09-28T05:17:38;23.70;87.30
17774;DHT22;9011;33.236;-97.118;2022-09-28T05:20:08;23.60;87.60
17774;DHT22;9011;33.236;-97.118;2022-09-28T05:22:37;23.70;87.70
17774;DHT22;9011;33.236;-97.118;2022-09-28T05:25:05;23.60;88.00
17774;DHT22;9011;33.236;-97.118;2022-09-28T05:27:34;23.40;88.30
17774;DHT22;9011;33.236;-97.118;2022-09-28T05:30:05;23.40;88.50
17774;DHT22;9011;33.236;-97.118;2022-09-28T05:32:39;23.40;88.30
17774;DHT22;9011;33.236;-97.118;2022-09-28T05:35:08;23.50;88.10
17774;DHT22;9011;33.236;-97.118;2022-09-28T05:37:37;23.40;87.60
17774;DHT22;9011;33.236;-97.118;2022-09-28T05:40:07;23.50;87.50
17774;DHT22;9011;33.236;-97.118;2022-09-28T05:42:36;23.40;87.40
17774;DHT22;9011;33.236;-97.118;2022-09-28T05:45:07;23.40;86.70
17774;DHT22;9011;33.236;-97.118;2022-09-28T05:47:37;23.50;87.20
17774;DHT22;9011;33.236;-97.118;2022-09-28T05:50:08;23.50;85.90
17774;DHT22;9011;33.236;-97.118;2022-09-28T05:52:37;23.50;85.80
17774;DHT22;9011;33.236;-97.118;2022-09-28T05:55:06;23.50;85.60
17774;DHT22;9011;33.236;-97.118;2022-09-28T05:57:35;23.50;86.10
17774;DHT22;9011;33.236;-97.118;2022-09-28T06:00:06;23.40;86.00
17774;DHT22;9011;33.236;-97.118;2022-09-28T06:02:34;23.50;86.20
17774;DHT22;9011;33.236;-97.118;2022-09-28T06:05:03;23.50;86.40
17774;DHT22;9011;33.236;-97.118;2022-09-28T06:07:32;23.40;86.50
17774;DHT22;9011;33.236;-97.118;2022-09-28T06:10:00;23.40;86.60
17774;DHT22;9011;33.236;-97.118;2022-09-28T06:12:29;23.50;86.90
17774;DHT22;9011;33.236;-97.118;2022-09-28T06:14:57;23.50;86.90
17774;DHT22;9011;33.236;-97.118;2022-09-28T06:17:28;23.50;86.80
17774;DHT22;9011;33.236;-97.118;2022-09-28T06:19:56;23.50;86.80
17774;DHT22;9011;33.236;-97.118;2022-09-28T06:22:25;23.50;87.00
17774;DHT22;9011;33.236;-97.118;2022-09-28T06:24:53;23.60;86.90
17774;DHT22;9011;33.236;-97.118;2022-09-28T06:27:21;23.60;87.10
17774;DHT22;9011;33.236;-97.118;2022-09-28T06:29:50;23.50;87.10
17774;DHT22;9011;33.236;-97.118;2022-09-28T06:32:18;23.50;86.90
17774;DHT22;9011;33.236;-97.118;2022-09-28T06:34:48;23.50;87.20
17774;DHT22;9011;33.236;-97.118;2022-09-28T06:37:17;23.50;87.30
17774;DHT22;9011;33.236;-97.118;2022-09-28T06:39:45;23.50;87.30
17774;DHT22;9011;33.236;-97.118;2022-09-28T06:42:13;23.50;87.30
17774;DHT22;9011;33.236;-97.118;2022-09-28T06:44:44;23.40;87.20
17774;DHT22;9011;33.236;-97.118;2022-09-28T06:47:13;23.50;87.50
17774;DHT22;9011;33.236;-97.118;2022-09-28T06:49:43;23.40;87.20
17774;DHT22;9011;33.236;-97.118;2022-09-28T06:52:14;23.40;87.40
17774;DHT22;9011;33.236;-97.118;2022-09-28T06:54:43;23.40;87.60
17774;DHT22;9011;33.236;-97.118;2022-09-28T06:57:11;23.30;87.60
17774;DHT22;9011;33.236;-97.118;2022-09-28T06:59:40;23.30;87.70
17774;DHT22;9011;33.236;-97.118;2022-09-28T07:02:09;23.30;87.90
17774;DHT22;9011;33.236;-97.118;2022-09-28T07:04:40;23.20;88.00
17774;DHT22;9011;33.236;-97.118;2022-09-28T07:07:09;23.00;88.10
17774;DHT22;9011;33.236;-97.118;2022-09-28T07:09:39;23.00;87.00
17774;DHT22;9011;33.236;-97.118;2022-09-28T07:12:08;23.00;87.00
17774;DHT22;9011;33.236;-97.118;2022-09-28T07:14:38;22.90;86.90
17774;DHT22;9011;33.236;-97.118;2022-09-28T07:17:07;23.00;87.00
17774;DHT22;9011;33.236;-97.118;2022-09-28T07:19:36;22.80;86.80
17774;DHT22;9011;33.236;-97.118;2022-09-28T07:22:05;22.80;86.80
17774;DHT22;9011;33.236;-97.118;2022-09-28T07:24:33;22.80;86.80
17774;DHT22;9011;33.236;-97.118;2022-09-28T07:27:03;22.80;86.70
17774;DHT22;9011;33.236;-97.118;2022-09-28T07:29:32;22.90;86.40
17774;DHT22;9011;33.236;-97.118;2022-09-28T07:32:00;22.90;86.10
17774;DHT22;9011;33.236;-97.118;2022-09-28T07:34:29;22.90;86.10
17774;DHT22;9011;33.236;-97.118;2022-09-28T07:37:05;22.80;86.60
17774;DHT22;9011;33.236;-97.118;2022-09-28T07:39:34;22.90;85.90
17774;DHT22;9011;33.236;-97.118;2022-09-28T07:42:25;22.70;85.60
17774;DHT22;9011;33.236;-97.118;2022-09-28T07:44:55;22.70;85.60
17774;DHT22;9011;33.236;-97.118;2022-09-28T07:47:24;22.80;85.60
17774;DHT22;9011;33.236;-97.118;2022-09-28T07:49:53;22.70;85.00
17774;DHT22;9011;33.236;-97.118;2022-09-28T07:52:22;22.80;84.90
17774;DHT22;9011;33.236;-97.118;2022-09-28T07:54:53;22.80;84.90
17774;DHT22;9011;33.236;-97.118;2022-09-28T07:57:24;22.90;84.90
17774;DHT22;9011;33.236;-97.118;2022-09-28T07:59:52;22.90;84.30
17774;DHT22;9011;33.236;-97.118;2022-09-28T08:02:21;22.80;84.50
17774;DHT22;9011;33.236;-97.118;2022-09-28T08:04:50;22.70;84.90
17774;DHT22;9011;33.236;-97.118;2022-09-28T08:07:18;22.80;84.90
17774;DHT22;9011;33.236;-97.118;2022-09-28T08:09:48;22.70;85.00
17774;DHT22;9011;33.236;-97.118;2022-09-28T08:12:16;22.70;85.00
17774;DHT22;9011;33.236;-97.118;2022-09-28T08:14:46;22.70;85.30
17774;DHT22;9011;33.236;-97.118;2022-09-28T08:17:16;22.70;85.60
17774;DHT22;9011;33.236;-97.118;2022-09-28T08:19:45;22.70;85.80
17774;DHT22;9011;33.236;-97.118;2022-09-28T08:22:30;22.70;86.30
17774;DHT22;9011;33.236;-97.118;2022-09-28T08:24:58;22.50;86.50
17774;DHT22;9011;33.236;-97.118;2022-09-28T08:27:27;22.50;86.50
17774;DHT22;9011;33.236;-97.118;2022-09-28T08:29:57;22.50;86.50
17774;DHT22;9011;33.236;-97.118;2022-09-28T08:32:25;22.50;86.70
17774;DHT22;9011;33.236;-97.118;2022-09-28T08:34:55;22.50;86.50
17774;DHT22;9011;33.236;-97.118;2022-09-28T08:37:23;22.40;87.50
17774;DHT22;9011;33.236;-97.118;2022-09-28T08:39:51;22.40;87.80
17774;DHT22;9011;33.236;-97.118;2022-09-28T08:42:31;22.30;87.90
17774;DHT22;9011;33.236;-97.118;2022-09-28T08:45:07;22.30;88.00
17774;DHT22;9011;33.236;-97.118;2022-09-28T08:47:42;22.30;88.80
17774;DHT22;9011;33.236;-97.118;2022-09-28T08:50:31;22.30;88.60
17774;DHT22;9011;33.236;-97.118;2022-09-28T08:53:04;22.20;89.20
17774;DHT22;9011;33.236;-97.118;2022-09-28T08:55:37;22.10;89.50
17774;DHT22;9011;33.236;-97.118;2022-09-28T08:58:11;22.10;89.80
17774;DHT22;9011;33.236;-97.118;2022-09-28T09:00:46;22.00;90.00
17774;DHT22;9011;33.236;-97.118;2022-09-28T09:03:16;22.00;90.20
17774;DHT22;9011;33.236;-97.118;2022-09-28T09:05:56;21.90;90.10
17774;DHT22;9011;33.236;-97.118;2022-09-28T09:08:39;21.90;90.40
17774;DHT22;9011;33.236;-97.118;2022-09-28T09:11:16;21.80;90.60
17774;DHT22;9011;33.236;-97.118;2022-09-28T09:16:48;21.70;91.00
17774;DHT22;9011;33.236;-97.118;2022-09-28T09:19:32;21.80;91.10
17774;DHT22;9011;33.236;-97.118;2022-09-28T09:22:09;21.80;91.20
17774;DHT22;9011;33.236;-97.118;2022-09-28T09:24:47;21.70;91.30
17774;DHT22;9011;33.236;-97.118;2022-09-28T09:27:29;21.70;91.60
17774;DHT22;9011;33.236;-97.118;2022-09-28T09:30:06;21.70;91.30
17774;DHT22;9011;33.236;-97.118;2022-09-28T09:33:02;21.70;91.30
17774;DHT22;9011;33.236;-97.118;2022-09-28T09:35:57;21.70;91.30
17774;DHT22;9011;33.236;-97.118;2022-09-28T09:38:45;21.70;91.20
17774;DHT22;9011;33.236;-97.118;2022-09-28T09:41:22;21.80;91.20
17774;DHT22;9011;33.236;-97.118;2022-09-28T09:44:13;21.80;91.10
17774;DHT22;9011;33.236;-97.118;2022-09-28T09:46:49;21.80;91.10
17774;DHT22;9011;33.236;-97.118;2022-09-28T09:49:23;21.80;91.20
17774;DHT22;9011;33.236;-97.118;2022-09-28T09:51:58;21.80;91.50
17774;DHT22;9011;33.236;-97.118;2022-09-28T09:54:33;21.70;91.40
17774;DHT22;9011;33.236;-97.118;2022-09-28T09:57:06;21.70;91.60
17774;DHT22;9011;33.236;-97.118;2022-09-28T09:59:39;21.70;91.70
17774;DHT22;9011;33.236;-97.118;2022-09-28T10:02:14;21.70;91.70
17774;DHT22;9011;33.236;-97.118;2022-09-28T10:04:49;21.70;92.10
17774;DHT22;9011;33.236;-97.118;2022-09-28T10:07:23;21.70;92.60
17774;DHT22;9011;33.236;-97.118;2022-09-28T10:09:56;21.60;92.70
17774;DHT22;9011;33.236;-97.118;2022-09-28T10:12:25;21.50;92.60
17774;DHT22;9011;33.236;-97.118;2022-09-28T10:14:54;21.40;92.50
17774;DHT22;9011;33.236;-97.118;2022-09-28T10:17:22;21.40;92.80
17774;DHT22;9011;33.236;-97.118;2022-09-28T10:19:55;21.30;92.90
17774;DHT22;9011;33.236;-97.118;2022-09-28T10:22:25;21.30;92.90
17774;DHT22;9011;33.236;-97.118;2022-09-28T10:24:55;21.30;93.10
17774;DHT22;9011;33.236;-97.118;2022-09-28T10:27:27;21.20;93.00
17774;DHT22;9011;33.236;-97.118;2022-09-28T10:29:59;21.10;93.30
17774;DHT22;9011;33.236;-97.118;2022-09-28T10:32:37;21.00;93.50
17774;DHT22;9011;33.236;-97.118;2022-09-28T10:35:23;20.90;93.50
17774;DHT22;9011;33.236;-97.118;2022-09-28T10:37:55;20.90;93.70
17774;DHT22;9011;33.236;-97.118;2022-09-28T10:40:36;20.80;94.00
17774;DHT22;9011;33.236;-97.118;2022-09-28T10:43:16;20.80;94.10
17774;DHT22;9011;33.236;-97.118;2022-09-28T10:45:45;20.70;94.30
17774;DHT22;9011;33.236;-97.118;2022-09-28T10:48:18;20.60;94.40
17774;DHT22;9011;33.236;-97.118;2022-09-28T10:51:03;20.60;94.80
17774;DHT22;9011;33.236;-97.118;2022-09-28T10:53:33;20.50;94.90
17774;DHT22;9011;33.236;-97.118;2022-09-28T10:56:05;20.50;95.00
17774;DHT22;9011;33.236;-97.118;2022-09-28T10:58:37;20.40;95.00
17774;DHT22;9011;33.236;-97.118;2022-09-28T11:01:09;20.30;95.30
17774;DHT22;9011;33.236;-97.118;2022-09-28T11:03:48;20.20;95.40
17774;DHT22;9011;33.236;-97.118;2022-09-28T11:06:25;20.20;95.80
17774;DHT22;9011;33.236;-97.118;2022-09-28T11:08:55;20.10;96.00
17774;DHT22;9011;33.236;-97.118;2022-09-28T11:11:24;20.00;96.30
17774;DHT22;9011;33.236;-97.118;2022-09-28T11:13:58;20.00;96.50
17774;DHT22;9011;33.236;-97.118;2022-09-28T11:16:30;20.00;96.60
17774;DHT22;9011;33.236;-97.118;2022-09-28T11:19:03;20.00;96.90
17774;DHT22;9011;33.236;-97.118;2022-09-28T11:21:40;19.90;97.20
17774;DHT22;9011;33.236;-97.118;2022-09-28T11:24:19;19.90;97.60
17774;DHT22;9011;33.236;-97.118;2022-09-28T11:26:50;19.80;97.90
17774;DHT22;9011;33.236;-97.118;2022-09-28T11:29:24;19.80;98.20
17774;DHT22;9011;33.236;-97.118;2022-09-28T11:31:59;19.80;98.90
17774;DHT22;9011;33.236;-97.118;2022-09-28T11:34:32;19.70;98.90
17774;DHT22;9011;33.236;-97.118;2022-09-28T11:37:28;19.70;99.00
17774;DHT22;9011;33.236;-97.118;2022-09-28T11:40:14;19.70;99.40
17774;DHT22;9011;33.236;-97.118;2022-09-28T11:42:51;19.60;99.70
17774;DHT22;9011;33.236;-97.118;2022-09-28T11:45:45;19.60;99.90
17774;DHT22;9011;33.236;-97.118;2022-09-28T11:48:16;19.60;99.90
17774;DHT22;9011;33.236;-97.118;2022-09-28T11:50:52;19.60;99.90
17774;DHT22;9011;33.236;-97.118;2022-09-28T11:53:27;19.60;99.90
17774;DHT22;9011;33.236;-97.118;2022-09-28T11:56:02;19.60;99.90
17774;DHT22;9011;33.236;-97.118;2022-09-28T11:58:34;19.60;99.90
17774;DHT22;9011;33.236;-97.118;2022-09-28T12:01:07;19.60;99.90
17774;DHT22;9011;33.236;-97.118;2022-09-28T12:03:40;19.70;99.90
17774;DHT22;9011;33.236;-97.118;2022-09-28T12:06:15;19.80;99.90
17774;DHT22;9011;33.236;-97.118;2022-09-28T12:08:52;19.80;99.90
17774;DHT22;9011;33.236;-97.118;2022-09-28T12:11:28;19.80;99.90
17774;DHT22;9011;33.236;-97.118;2022-09-28T12:14:01;19.90;99.90
17774;DHT22;9011;33.236;-97.118;2022-09-28T12:16:35;19.90;99.80
17774;DHT22;9011;33.236;-97.118;2022-09-28T12:19:11;20.00;99.80
17774;DHT22;9011;33.236;-97.118;2022-09-28T12:21:44;20.00;99.70
17774;DHT22;9011;33.236;-97.118;2022-09-28T12:24:18;20.10;99.70
17774;DHT22;9011;33.236;-97.118;2022-09-28T12:26:53;20.20;99.80
17774;DHT22;9011;33.236;-97.118;2022-09-28T12:29:30;20.20;99.90
17774;DHT22;9011;33.236;-97.118;2022-09-28T12:32:06;20.20;99.80
17774;DHT22;9011;33.236;-97.118;2022-09-28T12:34:40;20.20;99.80
17774;DHT22;9011;33.236;-97.118;2022-09-28T12:37:21;20.20;99.70
17774;DHT22;9011;33.236;-97.118;2022-09-28T12:40:14;20.30;99.70
17774;DHT22;9011;33.236;-97.118;2022-09-28T12:43:05;20.30;99.70
17774;DHT22;9011;33.236;-97.118;2022-09-28T12:45:46;20.30;99.40
17774;DHT22;9011;33.236;-97.118;2022-09-28T12:48:41;20.30;99.30
17774;DHT22;9011;33.236;-97.118;2022-09-28T12:51:24;20.40;99.30
17774;DHT22;9011;33.236;-97.118;2022-09-28T12:54:03;20.40;99.30
17774;DHT22;9011;33.236;-97.118;2022-09-28T12:56:41;20.40;99.30
17774;DHT22;9011;33.236;-97.118;2022-09-28T12:59:19;20.40;99.20
17774;DHT22;9011;33.236;-97.118;2022-09-28T13:02:10;20.50;99.40
17774;DHT22;9011;33.236;-97.118;2022-09-28T13:05:13;20.60;99.40
17774;DHT22;9011;33.236;-97.118;2022-09-28T13:07:49;20.60;99.40
17774;DHT22;9011;33.236;-97.118;2022-09-28T13:10:27;20.60;99.40
17774;DHT22;9011;33.236;-97.118;2022-09-28T13:13:16;20.70;99.30
17774;DHT22;9011;33.236;-97.118;2022-09-28T13:15:51;20.70;99.20
17774;DHT22;9011;33.236;-97.118;2022-09-28T13:18:25;20.80;99.20
17774;DHT22;9011;33.236;-97.118;2022-09-28T13:21:16;20.80;99.10
17774;DHT22;9011;33.236;-97.118;2022-09-28T13:23:49;20.80;99.20
17774;DHT22;9011;33.236;-97.118;2022-09-28T13:26:23;20.90;99.10
17774;DHT22;9011;33.236;-97.118;2022-09-28T13:28:59;21.00;99.00
17774;DHT22;9011;33.236;-97.118;2022-09-28T13:31:31;21.00;98.70
17774;DHT22;9011;33.236;-97.118;2022-09-28T13:34:02;21.10;98.80
17774;DHT22;9011;33.236;-97.118;2022-09-28T13:36:37;21.20;98.90
17774;DHT22;9011;33.236;-97.118;2022-09-28T13:39:33;21.20;98.30
17774;DHT22;9011;33.236;-97.118;2022-09-28T13:42:02;21.30;98.40
17774;DHT22;9011;33.236;-97.118;2022-09-28T13:45:00;21.40;98.50
17774;DHT22;9011;33.236;-97.118;2022-09-28T13:47:58;21.50;98.20
17774;DHT22;9011;33.236;-97.118;2022-09-28T13:50:36;21.50;97.80
17774;DHT22;9011;33.236;-97.118;2022-09-28T13:53:17;21.60;97.60
17774;DHT22;9011;33.236;-97.118;2022-09-28T13:55:55;21.70;97.30
17774;DHT22;9011;33.236;-97.118;2022-09-28T13:58:29;21.70;97.00
17774;DHT22;9011;33.236;-97.118;2022-09-28T14:01:03;21.80;96.80
17774;DHT22;9011;33.236;-97.118;2022-09-28T14:03:53;21.90;96.80
17774;DHT22;9011;33.236;-97.118;2022-09-28T14:06:24;21.90;96.70
17774;DHT22;9011;33.236;-97.118;2022-09-28T14:09:38;22.00;96.60
17774;DHT22;9011;33.236;-97.118;2022-09-28T14:15:37;22.20;96.30
17774;DHT22;9011;33.236;-97.118;2022-09-28T14:18:25;22.30;96.50
17774;DHT22;9011;33.236;-97.118;2022-09-28T14:21:10;22.40;96.40
17774;DHT22;9011;33.236;-97.118;2022-09-28T14:23:59;22.50;95.80
17774;DHT22;9011;33.236;-97.118;2022-09-28T14:29:34;22.70;94.70
17774;DHT22;9011;33.236;-97.118;2022-09-28T14:32:22;22.90;94.90
17774;DHT22;9011;33.236;-97.118;2022-09-28T14:35:00;23.00;94.70
17774;DHT22;9011;33.236;-97.118;2022-09-28T14:37:32;23.20;94.70
17774;DHT22;9011;33.236;-97.118;2022-09-28T14:40:20;23.30;94.00
17774;DHT22;9011;33.236;-97.118;2022-09-28T14:43:27;23.50;94.20
17774;DHT22;9011;33.236;-97.118;2022-09-28T14:46:27;23.70;93.80
17774;DHT22;9011;33.236;-97.118;2022-09-28T14:48:59;23.90;94.10
17774;DHT22;9011;33.236;-97.118;2022-09-28T14:51:59;24.10;93.70
17774;DHT22;9011;33.236;-97.118;2022-09-28T14:54:38;24.30;93.40
17774;DHT22;9011;33.236;-97.118;2022-09-28T14:57:16;24.50;93.40
17774;DHT22;9011;33.236;-97.118;2022-09-28T14:59:45;24.40;93.30
17774;DHT22;9011;33.236;-97.118;2022-09-28T15:02:23;24.40;93.10
17774;DHT22;9011;33.236;-97.118;2022-09-28T15:04:54;24.70;93.40
17774;DHT22;9011;33.236;-97.118;2022-09-28T15:07:28;24.70;92.50
17774;DHT22;9011;33.236;-97.118;2022-09-28T15:10:01;24.80;92.20
17774;DHT22;9011;33.236;-97.118;2022-09-28T15:12:30;24.90;92.00
17774;DHT22;9011;33.236;-97.118;2022-09-28T15:14:59;25.10;92.00
17774;DHT22;9011;33.236;-97.118;2022-09-28T15:17:30;25.30;91.90
17774;DHT22;9011;33.236;-97.118;2022-09-28T15:22:58;25.60;90.90
17774;DHT22;9011;33.236;-97.118;2022-09-28T15:25:27;25.80;91.10
17774;DHT22;9011;33.236;-97.118;2022-09-28T15:27:58;26.00;90.40
17774;DHT22;9011;33.236;-97.118;2022-09-28T15:30:31;26.10;90.30
17774;DHT22;9011;33.236;-97.118;2022-09-28T15:33:01;26.30;89.90
17774;DHT22;9011;33.236;-97.118;2022-09-28T15:35:46;26.40;89.40
17774;DHT22;9011;33.236;-97.118;2022-09-28T15:38:18;26.60;89.00
17774;DHT22;9011;33.236;-97.118;2022-09-28T15:40:46;26.80;88.50
17774;DHT22;9011;33.236;-97.118;2022-09-28T15:43:24;26.90;88.00
17774;DHT22;9011;33.236;-97.118;2022-09-28T15:46:02;27.20;86.60
17774;DHT22;9011;33.236;-97.118;2022-09-28T15:48:38;27.30;85.40
17774;DHT22;9011;33.236;-97.118;2022-09-28T15:51:09;27.40;84.90
17774;DHT22;9011;33.236;-97.118;2022-09-28T15:53:46;27.20;84.90
17774;DHT22;9011;33.236;-97.118;2022-09-28T15:56:18;27.50;84.90
17774;DHT22;9011;33.236;-97.118;2022-09-28T15:59:08;27.70;84.10
17774;DHT22;9011;33.236;-97.118;2022-09-28T16:01:38;27.80;83.20
17774;DHT22;9011;33.236;-97.118;2022-09-28T16:04:34;27.80;82.90
17774;DHT22;9011;33.236;-97.118;2022-09-28T16:07:22;28.10;82.40
17774;DHT22;9011;33.236;-97.118;2022-09-28T16:09:58;28.20;81.00
17774;DHT22;9011;33.236;-97.118;2022-09-28T16:12:32;28.40;80.20
17774;DHT22;9011;33.236;-97.118;2022-09-28T16:15:13;28.40;79.60
17774;DHT22;9011;33.236;-97.118;2022-09-28T16:17:48;28.50;79.30